Latest Weather Observations for Warra

IDT60801

Issued at 4:31 pm EDT Tuesday 19 January 2021 (issued every 10 minutes, with the page automatically refreshed every 10 minutes)

About weather observations | Map of weather stations | Latest weather observations for TAS | Other Formats
Station Details ID: 097024 Name: WARRA Lat: -43.06 Lon: 146.70 Height: 495.0 m
Data from the previous 72 hours. | See also: Recent months at Warra
Date/Time
EDT
Temp
°C
App
Temp
°C
Dew
Point
°C
Rel
Hum
%
Delta-T
°C
Wind Press
QNH
hPa
Press
MSL
hPa
Rain since
9am
mm
Dir  Spd
km/h
Gust
km/h
Spd
kts
Gust
kts
19/04:30pm 10.9 6.0 2.2 55 3.8 WSW 17 32 9 17 - - 0.2
19/04:00pm 10.8 6.0 2.4 56 3.7 WSW 17 33 9 18 - - 0.2
19/03:30pm 11.3 5.8 2.1 53 4.0 SW 20 41 11 22 - - 0.2
19/03:00pm 11.0 4.5 0.1 47 4.6 SW 24 37 13 20 - - 0.2
19/02:30pm 11.3 5.8 1.8 52 4.2 SW 20 41 11 22 - - 0.2
19/02:00pm 10.7 5.1 1.5 53 4.0 SW 20 43 11 23 - - 0.2
19/01:30pm 10.6 4.3 1.4 53 4.0 SW 24 44 13 24 - - 0.2
19/01:00pm 10.7 4.1 2.3 56 3.7 SW 26 41 14 22 - - 0.2
19/12:30pm 9.8 4.5 1.9 58 3.4 SW 19 37 10 20 - - 0.2
19/12:00pm 8.3 2.3 3.4 71 2.2 SW 24 44 13 24 - - 0.2
19/11:30am 8.6 2.5 2.8 67 2.5 SW 24 43 13 23 - - 0.0
19/11:00am 9.1 4.4 3.1 66 2.6 SW 17 39 9 21 - - 0.0
19/10:30am 8.6 3.1 2.0 63 2.8 SW 20 43 11 23 - - 0.0
19/10:00am 8.6 3.0 1.5 61 3.0 SW 20 39 11 21 - - 0.0
19/09:30am 8.4 4.0 2.8 68 2.4 SW 15 28 8 15 - - 0.0
19/09:00am 7.4 1.4 1.3 65 2.5 SW 22 46 12 25 - - -
19/08:30am 6.2 1.0 2.3 76 1.6 SW 19 30 10 16 - - -
19/08:00am 4.8 0.1 3.3 90 0.6 SW 17 35 9 19 - - -
19/07:30am 4.5 -1.3 2.2 85 1.0 SW 22 39 12 21 - - -
19/07:00am 4.4 -1.8 1.9 84 1.0 SW 24 46 13 25 - - -
19/06:30am 4.6 -1.4 0.9 77 1.5 SW 22 37 12 20 - - -
19/06:10am 5.2 -2.0 0.4 71 1.9 WSW 28 56 15 30 - - -
19/06:00am 5.2 -1.8 -0.2 68 2.1 SW 26 39 14 21 - - -
19/05:30am 5.1 -2.2 -0.1 69 2.0 WSW 28 50 15 27 - - -
19/05:26am 5.1 -2.2 0.1 70 2.0 WSW 28 52 15 28 - - -
19/05:00am 4.8 -2.0 0.8 75 1.6 SW 26 50 14 27 - - -
19/04:39am 4.8 -2.3 1.5 79 1.3 SW 28 46 15 25 - - -
19/04:30am 4.4 -1.1 1.9 84 1.0 SW 20 37 11 20 - - -
19/04:18am 4.8 -2.2 1.7 80 1.3 SW 28 48 15 26 - - -
19/04:00am 5.3 -1.5 0.5 71 1.9 SW 26 41 14 22 - - -
19/03:40am 5.3 -2.0 0.3 70 2.0 WSW 28 46 15 25 - - -
19/03:30am 5.4 -1.5 0.4 70 2.0 SW 26 48 14 26 - - -
19/03:14am 5.2 -2.0 0.4 71 1.9 WSW 28 46 15 25 - - -
19/03:00am 4.9 -1.1 1.0 76 1.6 SW 22 41 12 22 - - -
19/02:50am 4.9 -2.3 1.0 76 1.6 SW 28 50 15 27 - - -
19/02:30am 5.1 -0.5 1.4 77 1.5 SW 20 41 11 22 - - -
19/02:00am 5.6 -0.1 0.8 71 1.9 SW 20 37 11 20 - - -
19/01:30am 5.7 0.2 0.3 68 2.2 SW 19 37 10 20 - - -
19/01:00am 5.7 - 0.7 70 2.0 - - - - - - - -
19/12:00am 5.4 0.7 1.1 74 1.7 WSW 15 26 8 14 - - 2.6
 
Date/Time
EDT
Temp
°C
App
Temp
°C
Dew
Point
°C
Rel
Hum
%
Delta-T
°C
Wind Press
QNH
hPa
Press
MSL
hPa
Rain since
9am
mm
Dir  Spd
km/h
Gust
km/h
Spd
kts
Gust
kts
18/11:30pm 5.1 -1.6 1.6 78 1.4 WSW 26 59 14 32 - - 2.6
18/11:00pm 4.6 -1.5 2.5 86 0.9 WSW 24 41 13 22 - - 2.4
18/10:48pm 4.6 -2.4 2.0 83 1.1 WSW 28 61 15 33 - - 2.4
18/10:30pm 4.9 -1.3 2.1 82 1.2 WSW 24 44 13 24 - - 2.2
18/10:23pm 4.8 -2.2 2.2 83 1.1 WSW 28 54 15 29 - - 2.2
18/10:00pm 5.1 -0.6 3.0 86 0.9 WSW 22 43 12 23 - - 2.2
18/09:42pm 5.2 -1.7 2.6 83 1.1 WSW 28 46 15 25 - - 2.2
18/09:30pm 5.7 -0.1 2.2 78 1.5 WSW 22 39 12 21 - - 1.8
18/09:00pm 6.1 -1.3 2.0 75 1.7 SW 30 52 16 28 - - 1.6
18/08:30pm 6.6 -0.3 2.7 76 1.7 WSW 28 56 15 30 - - 1.4
18/08:05pm 6.7 -0.1 3.0 77 1.6 WSW 28 50 15 27 - - 1.2
18/08:00pm 6.5 0.4 2.8 77 1.6 WSW 24 50 13 27 - - 1.2
18/07:37pm 6.8 -0.2 2.1 72 2.0 SW 28 54 15 29 - - 1.2
18/07:30pm 7.9 1.4 0.6 60 3.0 WSW 24 44 13 24 - - 1.0
18/07:00pm 8.3 -1.1 0.1 56 3.3 WSW 39 70 21 38 - - 1.0
18/06:30pm 8.2 0.8 3.9 74 1.9 WSW 32 69 17 37 - - 1.0
18/06:00pm 9.8 2.0 2.9 62 3.1 WSW 33 63 18 34 - - 0.8
18/05:30pm 10.8 2.0 3.8 62 3.2 W 39 76 21 41 - - 0.8
18/05:00pm 9.6 2.0 6.0 78 1.7 WSW 35 61 19 33 - - 0.8
18/04:30pm 11.9 4.0 6.2 68 2.8 W 37 74 20 40 - - 0.8
18/04:00pm 12.5 4.2 7.6 72 2.5 WSW 41 83 22 45 - - 0.8
18/03:30pm 11.9 3.2 8.4 79 1.8 W 44 72 24 39 - - 0.8
18/03:00pm 12.7 4.7 9.0 78 1.9 W 41 87 22 47 - - 0.8
18/02:30pm 12.4 4.2 9.6 83 1.5 W 43 76 23 41 - - 0.8
18/02:00pm 12.0 4.7 10.1 88 1.0 W 39 76 21 41 - - 0.8
18/01:30pm 12.8 6.5 10.9 88 1.0 W 35 61 19 33 - - 0.6
18/01:00pm 12.4 5.1 10.3 87 1.1 W 39 65 21 35 - - 0.6
18/12:30pm 12.7 6.6 10.4 86 1.2 W 33 72 18 39 - - 0.4
18/12:07pm 12.4 7.1 10.0 85 1.3 W 28 59 15 32 - - 0.4
18/12:00pm 12.5 8.5 10.6 88 1.0 W 22 39 12 21 - - 0.4
18/11:52am 12.2 6.1 10.4 89 1.0 W 33 57 18 31 - - 0.4
18/11:51am 12.1 5.6 10.3 89 1.0 W 35 57 19 31 - - 0.4
18/11:49am 11.9 5.6 9.8 87 1.1 W 33 57 18 31 - - 0.4
18/11:45am 11.9 6.6 10.0 88 1.0 W 28 54 15 29 - - 0.4
18/11:30am 11.9 7.0 10.1 89 0.9 W 26 46 14 25 - - 0.4
18/11:06am 11.7 6.4 9.9 89 0.9 W 28 46 15 25 - - 0.2
18/11:00am 11.6 7.4 9.9 89 0.9 W 22 35 12 19 - - 0.2
18/10:30am 11.0 7.3 9.6 91 0.7 W 19 32 10 17 - - 0.2
18/10:05am 10.9 5.3 8.8 87 1.1 W 28 74 15 40 - - 0.0
18/10:00am 11.1 5.6 9.2 88 1.0 WNW 28 52 15 28 - - 0.0
18/09:31am 11.3 5.8 9.0 86 1.2 WNW 28 52 15 28 - - 0.0
18/09:30am 11.4 6.3 9.3 87 1.1 WNW 26 52 14 28 - - 0.0
18/09:02am 10.8 5.2 8.9 88 1.0 W 28 54 15 29 - - 0.0
18/09:00am 10.7 6.0 9.1 90 0.8 W 24 54 13 29 - - 1.8
18/08:30am 10.7 8.1 9.3 91 0.7 WNW 13 28 7 15 - - 1.6
18/08:10am 10.7 5.2 9.1 90 0.8 WNW 28 50 15 27 - - 1.4
18/08:00am 10.7 7.3 9.3 91 0.7 WNW 17 32 9 17 - - 1.4
18/07:30am 10.6 6.9 9.5 93 0.6 W 19 39 10 21 - - 1.4
18/07:00am 10.7 6.4 9.5 92 0.6 W 22 41 12 22 - - 1.0
18/06:30am 10.7 5.2 9.3 91 0.7 W 28 54 15 29 - - 1.0
18/06:05am 10.8 5.3 9.2 90 0.8 W 28 52 15 28 - - 0.8
18/06:00am 10.7 6.8 9.3 91 0.7 W 20 41 11 22 - - 0.8
18/05:30am 10.8 5.3 9.1 89 0.9 W 28 56 15 30 - - 0.8
18/05:00am 10.7 5.5 8.8 88 1.0 W 26 44 14 24 - - 0.8
18/04:30am 10.8 4.4 8.6 86 1.1 W 32 63 17 34 - - 0.8
18/04:00am 11.0 4.7 8.9 87 1.1 W 32 61 17 33 - - 0.8
18/03:30am 11.0 4.7 8.8 86 1.1 W 32 57 17 31 - - 0.6
18/03:21am 11.3 5.6 8.5 83 1.4 W 28 48 15 26 - - 0.6
18/03:00am 11.3 6.0 8.5 83 1.4 W 26 44 14 24 - - 0.6
18/02:30am 11.0 5.1 8.9 87 1.1 W 30 52 16 28 - - 0.6
18/02:00am 10.9 4.9 8.8 87 1.1 W 30 56 16 30 - - 0.6
18/01:30am 10.8 4.4 8.7 87 1.1 W 32 57 17 31 - - 0.6
18/01:00am 10.8 3.8 8.4 85 1.2 W 35 54 19 29 - - 0.6
18/12:30am 10.4 4.8 8.7 89 0.9 W 28 50 15 27 - - 0.6
18/12:00am 10.5 4.9 8.8 89 0.9 W 28 46 15 25 - - 0.6
 
Date/Time
EDT
Temp
°C
App
Temp
°C
Dew
Point
°C
Rel
Hum
%
Delta-T
°C
Wind Press
QNH
hPa
Press
MSL
hPa
Rain since
9am
mm
Dir  Spd
km/h
Gust
km/h
Spd
kts
Gust
kts
17/11:30pm 10.5 5.6 8.6 88 1.0 W 24 50 13 27 - - 0.6
17/11:00pm 10.4 3.5 8.7 89 0.9 W 35 61 19 33 - - 0.6
17/10:30pm 10.5 4.0 8.1 85 1.2 W 32 56 17 30 - - 0.6
17/10:00pm 10.4 4.6 7.8 84 1.3 W 28 54 15 29 - - 0.6
17/09:31pm 10.4 4.7 8.5 88 1.0 W 28 56 15 30 - - 0.6
17/09:30pm 10.4 5.1 8.5 88 1.0 W 26 56 14 30 - - 0.6
17/09:26pm 10.4 4.7 8.5 88 1.0 W 28 56 15 30 - - 0.6
17/09:00pm 10.6 6.1 8.7 88 1.0 W 22 44 12 24 - - 0.4
17/08:32pm 11.0 4.9 8.4 84 1.3 W 30 50 16 27 - - 0.4
17/08:30pm 10.9 4.5 8.5 85 1.2 W 32 48 17 26 - - 0.4
17/08:00pm 11.1 4.6 8.3 83 1.4 W 32 54 17 29 - - 0.4
17/07:30pm 11.1 4.9 9.2 88 1.0 W 32 52 17 28 - - 0.4
17/07:00pm 11.5 5.0 9.1 85 1.2 W 33 56 18 30 - - 0.4
17/06:30pm 11.5 4.7 9.4 87 1.1 W 35 82 19 44 - - 0.4
17/06:27pm 11.5 4.7 9.4 87 1.1 W 35 82 19 44 - - 0.4
17/06:00pm 11.6 5.2 9.5 87 1.1 W 33 57 18 31 - - 0.4
17/05:30pm 11.9 4.3 9.1 83 1.4 W 39 70 21 38 - - 0.4
17/05:00pm 11.8 5.1 9.7 87 1.1 W 35 76 19 41 - - 0.4
17/04:30pm 11.4 4.7 9.5 88 1.0 W 35 69 19 37 - - 0.2
17/04:00pm 11.3 5.7 8.9 85 1.2 W 28 63 15 34 - - 0.2
17/03:30pm 10.8 4.8 8.7 87 1.1 WNW 30 56 16 30 - - 0.2
17/03:07pm 11.0 5.4 8.6 85 1.2 W 28 63 15 34 - - 0.0
17/03:00pm 11.0 6.0 8.2 83 1.4 W 24 63 13 34 - - 0.0
17/02:40pm 11.1 5.4 8.3 83 1.4 WNW 28 46 15 25 - - 0.0
17/02:30pm 10.8 5.8 8.2 84 1.3 W 24 46 13 25 - - 0.0
17/02:00pm 11.3 5.1 8.0 80 1.7 WNW 30 57 16 31 - - 0.0
17/01:55pm 11.0 5.1 7.3 78 1.8 WNW 28 57 15 31 - - 0.0
17/01:30pm 10.9 5.3 7.0 77 1.9 WNW 26 56 14 30 - - 0.0
17/01:06pm 11.1 5.1 7.2 77 1.9 WNW 28 50 15 27 - - 0.0
17/01:00pm 11.0 5.8 7.3 78 1.8 W 24 39 13 21 - - 0.0
17/12:30pm 10.1 5.5 6.4 78 1.8 W 20 37 11 20 - - 0.0
17/12:00pm 9.0 3.9 6.1 82 1.4 W 22 44 12 24 - - 0.0
17/11:30am 9.3 3.0 5.7 78 1.7 WNW 28 52 15 28 - - 0.0
17/11:00am 8.7 3.0 5.1 78 1.7 W 24 41 13 22 - - 0.0
17/10:30am 8.2 2.0 4.2 76 1.8 W 26 43 14 23 - - 0.0
17/10:26am 8.2 1.6 4.0 75 1.9 W 28 56 15 30 - - 0.0
17/10:00am 8.0 2.8 3.7 74 1.9 W 20 37 11 20 - - 0.0
17/09:30am 7.8 1.5 3.8 76 1.8 WNW 26 50 14 27 - - 0.0
17/09:00am 7.1 1.6 4.2 82 1.3 WNW 22 43 12 23 - - 7.4
17/08:30am 7.3 3.4 3.5 77 1.7 W 13 48 7 26 - - 7.4
17/08:00am 7.3 2.0 3.0 74 1.9 W 20 35 11 19 - - 7.4
17/07:33am 7.2 0.3 2.7 73 1.9 W 28 50 15 27 - - 7.4
17/07:30am 7.1 1.0 3.0 75 1.8 W 24 50 13 27 - - 7.4
17/07:00am 6.7 1.4 2.8 76 1.7 W 20 44 11 24 - - 7.4
17/06:30am 6.4 1.0 2.7 77 1.6 W 20 35 11 19 - - 7.4
17/06:00am 6.3 -0.6 2.4 76 1.6 W 28 46 15 25 - - 7.4
17/05:36am 6.0 -0.9 2.5 78 1.5 WSW 28 56 15 30 - - 7.4
17/05:30am 5.5 -0.6 2.8 83 1.1 WSW 24 44 13 24 - - 7.4
17/05:00am 5.9 -1.4 2.2 77 1.6 WSW 30 48 16 26 - - 7.0
17/04:52am 5.7 -1.2 2.5 80 1.3 WSW 28 48 15 26 - - 7.0
17/04:30am 5.7 -0.1 2.5 80 1.3 WSW 22 35 12 19 - - 7.0
17/04:00am 5.8 -1.1 2.4 79 1.4 WSW 28 46 15 25 - - 6.8
17/03:59am 5.8 -1.1 2.4 79 1.4 WSW 28 46 15 25 - - 6.8
17/03:30am 5.7 0.5 3.4 85 1.0 WSW 20 35 11 19 - - 6.8
17/03:00am 5.4 -1.0 3.4 87 0.9 SW 26 43 14 23 - - 6.8
17/02:30am 5.4 0.4 3.6 88 0.8 SW 19 39 10 21 - - 6.6
17/02:00am 5.3 -0.3 3.5 88 0.8 SW 22 35 12 19 - - 6.2
17/01:30am 5.1 -0.5 3.4 89 0.7 SW 22 35 12 19 - - 6.2
17/01:00am 5.0 -0.2 3.5 90 0.6 WSW 20 33 11 18 - - 6.2
17/12:30am 5.2 0.3 3.9 91 0.6 WSW 19 30 10 16 - - 6.0
17/12:00am 5.0 0.8 3.8 92 0.5 WSW 15 28 8 15 - - 6.0
 
Date/Time
EDT
Temp
°C
App
Temp
°C
Dew
Point
°C
Rel
Hum
%
Delta-T
°C
Wind Press
QNH
hPa
Press
MSL
hPa
Rain since
9am
mm
Dir  Spd
km/h
Gust
km/h
Spd
kts
Gust
kts
16/11:30pm 5.0 0.0 3.7 91 0.6 WSW 19 35 10 19 - - 5.8
16/11:00pm 5.3 1.8 3.6 89 0.7 W 11 20 6 11 - - 5.4
16/10:30pm 5.3 1.1 3.6 89 0.7 SW 15 37 8 20 - - 5.4
16/10:00pm 5.3 0.1 3.6 89 0.7 WSW 20 33 11 18 - - 5.2
16/09:30pm 5.4 0.2 3.4 87 0.9 WSW 20 35 11 19 - - 4.8
16/09:00pm 5.3 0.1 3.6 89 0.7 SW 20 32 11 17 - - 4.6
16/08:30pm 5.9 0.8 3.2 83 1.2 WSW 19 39 10 21 - - 3.4
16/08:00pm 6.8 2.0 2.5 74 1.8 SW 17 37 9 20 - - 3.0
16/07:30pm 7.5 2.7 2.4 70 2.2 WSW 17 30 9 16 - - 3.0
16/07:00pm 7.7 3.5 3.6 75 1.8 SW 15 30 8 16 - - 3.0
16/06:30pm 7.9 2.8 3.9 76 1.8 SW 20 39 11 21 - - 3.0
16/06:03pm 8.4 1.7 3.8 73 2.1 WSW 28 48 15 26 - - 3.0
16/06:00pm 8.4 2.1 3.8 73 2.1 WSW 26 46 14 25 - - 3.0
16/05:30pm 7.0 -0.4 3.8 80 1.4 WSW 32 65 17 35 - - 3.0
16/05:00pm 7.1 0.0 5.4 89 0.8 WSW 32 52 17 28 - - 3.0

Other formats

Comma delimited format used in spreadsheet applications
http://www.bom.gov.au/fwo/IDT60801/IDT60801.95962.axf

JavaScript Object Notation format (JSON) in row-major order
http://www.bom.gov.au/fwo/IDT60801/IDT60801.95962.json

Data quality

Most of these data are generated automatically and are frequently updated. Quality checks on data are not normally performed. It is possible for incorrect values to appear. Refer to information at About Latest Weather Observations and please check the disclaimer before using these data.